sensor_id;sensor_type;location;lat;lon;timestamp;P1;durP1;ratioP1;P2;durP2;ratioP2
20456;SDS011;10387;51.102;6.848;2022-10-16T00:01:42;2.63;;;2.40;;
20456;SDS011;10387;51.102;6.848;2022-10-16T00:04:08;2.77;;;2.50;;
20456;SDS011;10387;51.102;6.848;2022-10-16T00:06:35;3.10;;;2.30;;
20456;SDS011;10387;51.102;6.848;2022-10-16T00:09:01;2.50;;;2.30;;
20456;SDS011;10387;51.102;6.848;2022-10-16T00:11:28;2.83;;;2.23;;
20456;SDS011;10387;51.102;6.848;2022-10-16T00:13:55;3.03;;;2.30;;
20456;SDS011;10387;51.102;6.848;2022-10-16T00:16:22;4.10;;;2.30;;
20456;SDS011;10387;51.102;6.848;2022-10-16T00:18:48;3.03;;;2.50;;
20456;SDS011;10387;51.102;6.848;2022-10-16T00:21:16;2.83;;;2.57;;
20456;SDS011;10387;51.102;6.848;2022-10-16T00:23:42;3.73;;;2.40;;
20456;SDS011;10387;51.102;6.848;2022-10-16T00:26:09;3.00;;;2.67;;
20456;SDS011;10387;51.102;6.848;2022-10-16T00:28:36;2.93;;;2.57;;
20456;SDS011;10387;51.102;6.848;2022-10-16T00:31:09;2.63;;;2.43;;
20456;SDS011;10387;51.102;6.848;2022-10-16T00:33:36;3.03;;;2.47;;
20456;SDS011;10387;51.102;6.848;2022-10-16T00:36:02;2.70;;;2.50;;
20456;SDS011;10387;51.102;6.848;2022-10-16T00:38:29;2.67;;;2.00;;
20456;SDS011;10387;51.102;6.848;2022-10-16T00:40:55;4.43;;;2.40;;
20456;SDS011;10387;51.102;6.848;2022-10-16T00:46:00;4.33;;;2.27;;
20456;SDS011;10387;51.102;6.848;2022-10-16T00:48:27;3.37;;;2.27;;
20456;SDS011;10387;51.102;6.848;2022-10-16T00:50:53;2.60;;;2.20;;
20456;SDS011;10387;51.102;6.848;2022-10-16T00:53:19;2.93;;;2.40;;
20456;SDS011;10387;51.102;6.848;2022-10-16T00:55:45;2.63;;;2.33;;
20456;SDS011;10387;51.102;6.848;2022-10-16T00:58:11;3.90;;;2.00;;
20456;SDS011;10387;51.102;6.848;2022-10-16T01:00:37;5.10;;;2.10;;
20456;SDS011;10387;51.102;6.848;2022-10-16T01:03:22;2.70;;;2.50;;
20456;SDS011;10387;51.102;6.848;2022-10-16T01:05:50;3.27;;;2.73;;
20456;SDS011;10387;51.102;6.848;2022-10-16T01:08:20;3.37;;;2.67;;
20456;SDS011;10387;51.102;6.848;2022-10-16T01:10:50;4.40;;;2.80;;
20456;SDS011;10387;51.102;6.848;2022-10-16T01:13:22;2.90;;;2.70;;
20456;SDS011;10387;51.102;6.848;2022-10-16T01:15:59;3.53;;;2.80;;
20456;SDS011;10387;51.102;6.848;2022-10-16T01:20:54;3.23;;;2.93;;
20456;SDS011;10387;51.102;6.848;2022-10-16T01:28:18;4.33;;;2.77;;
20456;SDS011;10387;51.102;6.848;2022-10-16T01:30:44;3.20;;;2.77;;
20456;SDS011;10387;51.102;6.848;2022-10-16T01:35:45;2.80;;;2.43;;
20456;SDS011;10387;51.102;6.848;2022-10-16T01:38:15;3.13;;;2.83;;
20456;SDS011;10387;51.102;6.848;2022-10-16T01:40:44;2.63;;;2.43;;
20456;SDS011;10387;51.102;6.848;2022-10-16T01:43:12;3.00;;;2.80;;
20456;SDS011;10387;51.102;6.848;2022-10-16T01:45:41;3.50;;;2.97;;
20456;SDS011;10387;51.102;6.848;2022-10-16T01:48:07;2.93;;;2.73;;
20456;SDS011;10387;51.102;6.848;2022-10-16T01:50:38;3.13;;;2.93;;
20456;SDS011;10387;51.102;6.848;2022-10-16T01:53:05;3.30;;;3.00;;
20456;SDS011;10387;51.102;6.848;2022-10-16T01:55:35;3.13;;;2.83;;
20456;SDS011;10387;51.102;6.848;2022-10-16T01:58:03;3.30;;;2.83;;
20456;SDS011;10387;51.102;6.848;2022-10-16T02:00:31;2.97;;;2.73;;
20456;SDS011;10387;51.102;6.848;2022-10-16T02:02:57;2.87;;;2.60;;
20456;SDS011;10387;51.102;6.848;2022-10-16T02:05:32;3.17;;;2.87;;
20456;SDS011;10387;51.102;6.848;2022-10-16T02:07:59;3.37;;;2.60;;
20456;SDS011;10387;51.102;6.848;2022-10-16T02:10:25;4.00;;;2.70;;
20456;SDS011;10387;51.102;6.848;2022-10-16T02:13:03;3.17;;;2.73;;
20456;SDS011;10387;51.102;6.848;2022-10-16T02:15:31;2.37;;;2.17;;
20456;SDS011;10387;51.102;6.848;2022-10-16T02:17:59;3.20;;;2.63;;
20456;SDS011;10387;51.102;6.848;2022-10-16T02:20:27;4.00;;;2.80;;
20456;SDS011;10387;51.102;6.848;2022-10-16T02:22:53;2.90;;;2.60;;
20456;SDS011;10387;51.102;6.848;2022-10-16T02:27:57;3.57;;;2.93;;
20456;SDS011;10387;51.102;6.848;2022-10-16T02:32:53;3.33;;;2.90;;
20456;SDS011;10387;51.102;6.848;2022-10-16T02:35:20;2.80;;;2.60;;
20456;SDS011;10387;51.102;6.848;2022-10-16T02:37:47;3.23;;;2.60;;
20456;SDS011;10387;51.102;6.848;2022-10-16T02:40:14;2.80;;;2.57;;
20456;SDS011;10387;51.102;6.848;2022-10-16T02:42:40;3.60;;;2.87;;
20456;SDS011;10387;51.102;6.848;2022-10-16T02:45:07;4.50;;;2.57;;
20456;SDS011;10387;51.102;6.848;2022-10-16T02:47:34;4.87;;;2.80;;
20456;SDS011;10387;51.102;6.848;2022-10-16T02:50:00;2.70;;;2.50;;
20456;SDS011;10387;51.102;6.848;2022-10-16T02:52:26;2.60;;;2.40;;
20456;SDS011;10387;51.102;6.848;2022-10-16T02:54:52;3.73;;;2.93;;
20456;SDS011;10387;51.102;6.848;2022-10-16T02:57:18;2.90;;;2.60;;
20456;SDS011;10387;51.102;6.848;2022-10-16T02:59:44;2.90;;;2.70;;
20456;SDS011;10387;51.102;6.848;2022-10-16T03:02:10;2.57;;;2.33;;
20456;SDS011;10387;51.102;6.848;2022-10-16T03:04:37;2.27;;;2.07;;
20456;SDS011;10387;51.102;6.848;2022-10-16T03:07:03;2.50;;;2.40;;
20456;SDS011;10387;51.102;6.848;2022-10-16T03:09:29;2.50;;;2.30;;
20456;SDS011;10387;51.102;6.848;2022-10-16T03:11:55;2.50;;;2.30;;
20456;SDS011;10387;51.102;6.848;2022-10-16T03:14:21;2.20;;;2.00;;
20456;SDS011;10387;51.102;6.848;2022-10-16T03:16:47;3.40;;;2.07;;
20456;SDS011;10387;51.102;6.848;2022-10-16T03:19:13;3.73;;;2.10;;
20456;SDS011;10387;51.102;6.848;2022-10-16T03:21:41;1.97;;;1.87;;
20456;SDS011;10387;51.102;6.848;2022-10-16T03:24:07;3.83;;;1.70;;
20456;SDS011;10387;51.102;6.848;2022-10-16T03:26:33;1.93;;;1.80;;
20456;SDS011;10387;51.102;6.848;2022-10-16T03:28:59;2.00;;;1.80;;
20456;SDS011;10387;51.102;6.848;2022-10-16T03:31:27;1.70;;;1.60;;
20456;SDS011;10387;51.102;6.848;2022-10-16T03:33:53;2.23;;;1.90;;
20456;SDS011;10387;51.102;6.848;2022-10-16T03:36:20;2.03;;;1.63;;
20456;SDS011;10387;51.102;6.848;2022-10-16T03:38:46;1.90;;;1.80;;
20456;SDS011;10387;51.102;6.848;2022-10-16T03:41:12;1.90;;;1.77;;
20456;SDS011;10387;51.102;6.848;2022-10-16T03:43:38;2.00;;;1.90;;
20456;SDS011;10387;51.102;6.848;2022-10-16T03:46:04;2.13;;;1.53;;
20456;SDS011;10387;51.102;6.848;2022-10-16T03:48:30;2.67;;;1.70;;
20456;SDS011;10387;51.102;6.848;2022-10-16T03:50:57;1.70;;;1.60;;
20456;SDS011;10387;51.102;6.848;2022-10-16T03:53:23;1.90;;;1.80;;
20456;SDS011;10387;51.102;6.848;2022-10-16T03:55:49;1.93;;;1.63;;
20456;SDS011;10387;51.102;6.848;2022-10-16T03:58:16;1.90;;;1.53;;
20456;SDS011;10387;51.102;6.848;2022-10-16T04:00:42;3.60;;;1.80;;
20456;SDS011;10387;51.102;6.848;2022-10-16T04:03:09;1.80;;;1.63;;
20456;SDS011;10387;51.102;6.848;2022-10-16T04:05:35;3.33;;;1.63;;
20456;SDS011;10387;51.102;6.848;2022-10-16T04:08:01;2.17;;;1.97;;
20456;SDS011;10387;51.102;6.848;2022-10-16T04:10:27;2.47;;;1.87;;
20456;SDS011;10387;51.102;6.848;2022-10-16T04:12:53;2.20;;;1.60;;
20456;SDS011;10387;51.102;6.848;2022-10-16T04:15:21;2.33;;;1.67;;
20456;SDS011;10387;51.102;6.848;2022-10-16T04:17:47;2.00;;;1.60;;
20456;SDS011;10387;51.102;6.848;2022-10-16T04:20:13;3.60;;;2.00;;
20456;SDS011;10387;51.102;6.848;2022-10-16T04:22:39;1.87;;;1.77;;
20456;SDS011;10387;51.102;6.848;2022-10-16T04:25:05;1.60;;;1.50;;
20456;SDS011;10387;51.102;6.848;2022-10-16T04:27:32;3.13;;;1.50;;
20456;SDS011;10387;51.102;6.848;2022-10-16T04:29:59;1.80;;;1.70;;
20456;SDS011;10387;51.102;6.848;2022-10-16T04:32:25;2.47;;;2.00;;
20456;SDS011;10387;51.102;6.848;2022-10-16T04:34:52;2.57;;;1.90;;
20456;SDS011;10387;51.102;6.848;2022-10-16T04:37:18;2.53;;;2.00;;
20456;SDS011;10387;51.102;6.848;2022-10-16T04:39:44;2.17;;;1.53;;
20456;SDS011;10387;51.102;6.848;2022-10-16T04:42:10;2.03;;;1.77;;
20456;SDS011;10387;51.102;6.848;2022-10-16T04:44:36;1.87;;;1.57;;
20456;SDS011;10387;51.102;6.848;2022-10-16T04:47:02;2.33;;;1.80;;
20456;SDS011;10387;51.102;6.848;2022-10-16T04:49:29;3.57;;;1.90;;
20456;SDS011;10387;51.102;6.848;2022-10-16T04:51:55;1.53;;;1.43;;
20456;SDS011;10387;51.102;6.848;2022-10-16T04:54:22;2.23;;;1.60;;
20456;SDS011;10387;51.102;6.848;2022-10-16T04:56:48;1.73;;;1.63;;
20456;SDS011;10387;51.102;6.848;2022-10-16T04:59:16;4.77;;;1.80;;
20456;SDS011;10387;51.102;6.848;2022-10-16T05:01:42;2.97;;;1.70;;
20456;SDS011;10387;51.102;6.848;2022-10-16T05:04:09;1.83;;;1.73;;
20456;SDS011;10387;51.102;6.848;2022-10-16T05:06:35;2.23;;;1.90;;
20456;SDS011;10387;51.102;6.848;2022-10-16T05:09:06;2.10;;;2.00;;
20456;SDS011;10387;51.102;6.848;2022-10-16T05:11:32;3.07;;;2.30;;
20456;SDS011;10387;51.102;6.848;2022-10-16T05:14:19;2.90;;;2.60;;
20456;SDS011;10387;51.102;6.848;2022-10-16T05:16:45;2.03;;;1.93;;
20456;SDS011;10387;51.102;6.848;2022-10-16T05:19:13;2.70;;;2.00;;
20456;SDS011;10387;51.102;6.848;2022-10-16T05:21:39;2.00;;;1.80;;
20456;SDS011;10387;51.102;6.848;2022-10-16T05:24:05;2.00;;;1.87;;
20456;SDS011;10387;51.102;6.848;2022-10-16T05:26:31;1.90;;;1.80;;
20456;SDS011;10387;51.102;6.848;2022-10-16T05:28:57;2.30;;;2.07;;
20456;SDS011;10387;51.102;6.848;2022-10-16T05:31:23;2.97;;;1.90;;
20456;SDS011;10387;51.102;6.848;2022-10-16T05:33:49;2.27;;;2.07;;
20456;SDS011;10387;51.102;6.848;2022-10-16T05:36:15;2.50;;;2.30;;
20456;SDS011;10387;51.102;6.848;2022-10-16T05:38:43;4.17;;;2.13;;
20456;SDS011;10387;51.102;6.848;2022-10-16T05:41:09;5.07;;;2.40;;
20456;SDS011;10387;51.102;6.848;2022-10-16T05:43:35;3.23;;;2.10;;
20456;SDS011;10387;51.102;6.848;2022-10-16T05:46:04;2.33;;;2.13;;
20456;SDS011;10387;51.102;6.848;2022-10-16T05:48:31;2.73;;;2.50;;
20456;SDS011;10387;51.102;6.848;2022-10-16T05:51:02;2.17;;;1.97;;
20456;SDS011;10387;51.102;6.848;2022-10-16T05:53:30;2.60;;;2.40;;
20456;SDS011;10387;51.102;6.848;2022-10-16T05:55:56;3.23;;;2.43;;
20456;SDS011;10387;51.102;6.848;2022-10-16T05:58:22;3.23;;;2.93;;
20456;SDS011;10387;51.102;6.848;2022-10-16T06:00:52;3.03;;;2.47;;
20456;SDS011;10387;51.102;6.848;2022-10-16T06:03:19;3.67;;;2.70;;
20456;SDS011;10387;51.102;6.848;2022-10-16T06:05:45;2.90;;;2.63;;
20456;SDS011;10387;51.102;6.848;2022-10-16T06:08:11;2.90;;;2.70;;
20456;SDS011;10387;51.102;6.848;2022-10-16T06:10:37;2.67;;;2.47;;
20456;SDS011;10387;51.102;6.848;2022-10-16T06:13:03;3.67;;;2.70;;
20456;SDS011;10387;51.102;6.848;2022-10-16T06:15:29;2.87;;;2.50;;
20456;SDS011;10387;51.102;6.848;2022-10-16T06:17:55;2.77;;;2.50;;
20456;SDS011;10387;51.102;6.848;2022-10-16T06:20:21;3.53;;;2.70;;
20456;SDS011;10387;51.102;6.848;2022-10-16T06:22:47;2.40;;;2.30;;
20456;SDS011;10387;51.102;6.848;2022-10-16T06:25:13;3.00;;;2.80;;
20456;SDS011;10387;51.102;6.848;2022-10-16T06:27:39;4.30;;;2.80;;
20456;SDS011;10387;51.102;6.848;2022-10-16T06:30:06;4.07;;;2.60;;
20456;SDS011;10387;51.102;6.848;2022-10-16T06:32:32;4.03;;;2.87;;
20456;SDS011;10387;51.102;6.848;2022-10-16T06:34:58;2.60;;;2.40;;
20456;SDS011;10387;51.102;6.848;2022-10-16T06:37:24;2.70;;;2.43;;
20456;SDS011;10387;51.102;6.848;2022-10-16T06:39:50;2.80;;;2.60;;
20456;SDS011;10387;51.102;6.848;2022-10-16T06:42:19;3.90;;;2.63;;
20456;SDS011;10387;51.102;6.848;2022-10-16T06:44:45;2.83;;;2.63;;
20456;SDS011;10387;51.102;6.848;2022-10-16T06:47:11;2.87;;;2.67;;
20456;SDS011;10387;51.102;6.848;2022-10-16T06:49:37;4.50;;;2.70;;
20456;SDS011;10387;51.102;6.848;2022-10-16T06:52:04;3.20;;;2.90;;
20456;SDS011;10387;51.102;6.848;2022-10-16T06:54:30;3.37;;;3.03;;
20456;SDS011;10387;51.102;6.848;2022-10-16T06:56:56;3.10;;;2.90;;
20456;SDS011;10387;51.102;6.848;2022-10-16T06:59:22;3.23;;;2.93;;
20456;SDS011;10387;51.102;6.848;2022-10-16T07:01:48;2.90;;;2.70;;
20456;SDS011;10387;51.102;6.848;2022-10-16T07:04:14;3.20;;;2.90;;
20456;SDS011;10387;51.102;6.848;2022-10-16T07:06:40;2.93;;;2.73;;
20456;SDS011;10387;51.102;6.848;2022-10-16T07:09:08;3.00;;;2.70;;
20456;SDS011;10387;51.102;6.848;2022-10-16T07:11:34;2.43;;;2.00;;
20456;SDS011;10387;51.102;6.848;2022-10-16T07:14:02;3.53;;;3.17;;
20456;SDS011;10387;51.102;6.848;2022-10-16T07:16:29;3.60;;;2.87;;
20456;SDS011;10387;51.102;6.848;2022-10-16T07:18:56;3.27;;;2.50;;
20456;SDS011;10387;51.102;6.848;2022-10-16T07:21:24;2.60;;;2.40;;
20456;SDS011;10387;51.102;6.848;2022-10-16T07:23:54;2.80;;;2.60;;
20456;SDS011;10387;51.102;6.848;2022-10-16T07:26:21;4.77;;;3.97;;
20456;SDS011;10387;51.102;6.848;2022-10-16T07:28:48;3.33;;;2.93;;
20456;SDS011;10387;51.102;6.848;2022-10-16T07:31:14;2.70;;;2.40;;
20456;SDS011;10387;51.102;6.848;2022-10-16T07:33:41;3.57;;;2.50;;
20456;SDS011;10387;51.102;6.848;2022-10-16T07:36:09;2.63;;;2.20;;
20456;SDS011;10387;51.102;6.848;2022-10-16T07:38:35;3.60;;;2.40;;
20456;SDS011;10387;51.102;6.848;2022-10-16T07:41:03;2.30;;;2.20;;
20456;SDS011;10387;51.102;6.848;2022-10-16T07:43:29;3.73;;;2.40;;
20456;SDS011;10387;51.102;6.848;2022-10-16T07:45:55;2.33;;;2.13;;
20456;SDS011;10387;51.102;6.848;2022-10-16T07:48:22;2.80;;;2.60;;
20456;SDS011;10387;51.102;6.848;2022-10-16T07:50:48;3.13;;;2.83;;
20456;SDS011;10387;51.102;6.848;2022-10-16T07:53:14;3.73;;;2.83;;
20456;SDS011;10387;51.102;6.848;2022-10-16T07:55:40;4.57;;;2.50;;
20456;SDS011;10387;51.102;6.848;2022-10-16T07:58:06;3.23;;;2.60;;
20456;SDS011;10387;51.102;6.848;2022-10-16T08:00:33;2.33;;;2.20;;
20456;SDS011;10387;51.102;6.848;2022-10-16T08:02:59;2.67;;;1.87;;
20456;SDS011;10387;51.102;6.848;2022-10-16T08:05:26;4.03;;;2.10;;
20456;SDS011;10387;51.102;6.848;2022-10-16T08:07:53;2.33;;;2.00;;
20456;SDS011;10387;51.102;6.848;2022-10-16T08:10:20;2.57;;;2.00;;
20456;SDS011;10387;51.102;6.848;2022-10-16T08:12:46;2.10;;;1.90;;
20456;SDS011;10387;51.102;6.848;2022-10-16T08:15:12;1.70;;;1.60;;
20456;SDS011;10387;51.102;6.848;2022-10-16T08:17:38;1.90;;;1.80;;
20456;SDS011;10387;51.102;6.848;2022-10-16T08:20:05;2.70;;;2.00;;
20456;SDS011;10387;51.102;6.848;2022-10-16T08:22:31;2.57;;;2.00;;
20456;SDS011;10387;51.102;6.848;2022-10-16T08:24:57;1.77;;;1.67;;
20456;SDS011;10387;51.102;6.848;2022-10-16T08:27:23;1.93;;;1.50;;
20456;SDS011;10387;51.102;6.848;2022-10-16T08:29:49;2.67;;;1.80;;
20456;SDS011;10387;51.102;6.848;2022-10-16T08:32:15;3.90;;;1.80;;
20456;SDS011;10387;51.102;6.848;2022-10-16T08:34:41;1.60;;;1.50;;
20456;SDS011;10387;51.102;6.848;2022-10-16T08:37:07;3.57;;;1.77;;
20456;SDS011;10387;51.102;6.848;2022-10-16T08:39:36;3.03;;;1.27;;
20456;SDS011;10387;51.102;6.848;2022-10-16T08:44:55;2.40;;;1.70;;
20456;SDS011;10387;51.102;6.848;2022-10-16T08:47:26;3.60;;;1.60;;
20456;SDS011;10387;51.102;6.848;2022-10-16T08:49:58;2.67;;;1.50;;
20456;SDS011;10387;51.102;6.848;2022-10-16T08:52:25;3.63;;;1.60;;
20456;SDS011;10387;51.102;6.848;2022-10-16T08:54:55;2.87;;;1.60;;
20456;SDS011;10387;51.102;6.848;2022-10-16T08:57:22;3.13;;;1.47;;
20456;SDS011;10387;51.102;6.848;2022-10-16T08:59:52;2.43;;;1.60;;
20456;SDS011;10387;51.102;6.848;2022-10-16T09:02:29;2.50;;;1.30;;
20456;SDS011;10387;51.102;6.848;2022-10-16T09:07:51;2.90;;;1.30;;
20456;SDS011;10387;51.102;6.848;2022-10-16T09:12:49;2.53;;;1.23;;
20456;SDS011;10387;51.102;6.848;2022-10-16T09:18:05;1.33;;;1.20;;
20456;SDS011;10387;51.102;6.848;2022-10-16T09:20:49;1.97;;;1.10;;
20456;SDS011;10387;51.102;6.848;2022-10-16T09:23:17;2.17;;;1.30;;
20456;SDS011;10387;51.102;6.848;2022-10-16T09:25:48;2.33;;;1.50;;
20456;SDS011;10387;51.102;6.848;2022-10-16T09:28:15;2.37;;;1.03;;
20456;SDS011;10387;51.102;6.848;2022-10-16T09:30:41;1.43;;;1.10;;
20456;SDS011;10387;51.102;6.848;2022-10-16T09:33:09;1.03;;;0.80;;
20456;SDS011;10387;51.102;6.848;2022-10-16T09:35:46;1.40;;;1.00;;
20456;SDS011;10387;51.102;6.848;2022-10-16T09:40:48;2.73;;;1.20;;
20456;SDS011;10387;51.102;6.848;2022-10-16T09:43:28;2.23;;;1.13;;
20456;SDS011;10387;51.102;6.848;2022-10-16T09:45:59;3.10;;;1.10;;
20456;SDS011;10387;51.102;6.848;2022-10-16T09:51:25;2.57;;;1.20;;
20456;SDS011;10387;51.102;6.848;2022-10-16T09:54:34;2.73;;;1.23;;
20456;SDS011;10387;51.102;6.848;2022-10-16T09:56:41;2.03;;;1.17;;
20456;SDS011;10387;51.102;6.848;2022-10-16T09:59:17;3.27;;;1.20;;
20456;SDS011;10387;51.102;6.848;2022-10-16T10:01:48;1.23;;;1.10;;
20456;SDS011;10387;51.102;6.848;2022-10-16T10:04:16;2.90;;;1.10;;
20456;SDS011;10387;51.102;6.848;2022-10-16T10:06:45;2.73;;;1.07;;
20456;SDS011;10387;51.102;6.848;2022-10-16T10:09:25;2.30;;;1.03;;
20456;SDS011;10387;51.102;6.848;2022-10-16T10:11:53;1.53;;;0.90;;
20456;SDS011;10387;51.102;6.848;2022-10-16T10:14:20;1.67;;;1.10;;
20456;SDS011;10387;51.102;6.848;2022-10-16T10:16:47;2.77;;;1.20;;
20456;SDS011;10387;51.102;6.848;2022-10-16T10:19:14;1.70;;;1.10;;
20456;SDS011;10387;51.102;6.848;2022-10-16T10:21:41;1.83;;;1.10;;
20456;SDS011;10387;51.102;6.848;2022-10-16T10:24:11;3.67;;;1.23;;
20456;SDS011;10387;51.102;6.848;2022-10-16T10:26:37;3.10;;;1.17;;
20456;SDS011;10387;51.102;6.848;2022-10-16T10:29:06;2.77;;;1.30;;
20456;SDS011;10387;51.102;6.848;2022-10-16T10:31:45;1.83;;;1.10;;
20456;SDS011;10387;51.102;6.848;2022-10-16T10:37:22;2.23;;;1.50;;
20456;SDS011;10387;51.102;6.848;2022-10-16T10:39:51;4.10;;;1.40;;
20456;SDS011;10387;51.102;6.848;2022-10-16T10:42:27;2.37;;;1.40;;
20456;SDS011;10387;51.102;6.848;2022-10-16T10:49:58;1.27;;;1.10;;
20456;SDS011;10387;51.102;6.848;2022-10-16T10:52:48;1.50;;;1.27;;
20456;SDS011;10387;51.102;6.848;2022-10-16T10:58:25;1.47;;;1.37;;
20456;SDS011;10387;51.102;6.848;2022-10-16T11:08:34;2.10;;;1.10;;
20456;SDS011;10387;51.102;6.848;2022-10-16T11:11:18;3.63;;;1.27;;
20456;SDS011;10387;51.102;6.848;2022-10-16T11:13:51;1.97;;;1.10;;
20456;SDS011;10387;51.102;6.848;2022-10-16T11:16:27;2.23;;;1.27;;
20456;SDS011;10387;51.102;6.848;2022-10-16T11:21:41;2.47;;;1.10;;
20456;SDS011;10387;51.102;6.848;2022-10-16T11:24:13;1.07;;;0.80;;
20456;SDS011;10387;51.102;6.848;2022-10-16T11:26:42;2.33;;;1.03;;
20456;SDS011;10387;51.102;6.848;2022-10-16T11:29:43;2.60;;;0.80;;
20456;SDS011;10387;51.102;6.848;2022-10-16T11:32:04;0.90;;;0.80;;
20456;SDS011;10387;51.102;6.848;2022-10-16T11:34:36;1.00;;;0.90;;
20456;SDS011;10387;51.102;6.848;2022-10-16T11:37:20;2.60;;;0.83;;
20456;SDS011;10387;51.102;6.848;2022-10-16T11:39:47;2.90;;;1.10;;
20456;SDS011;10387;51.102;6.848;2022-10-16T11:44:48;2.23;;;0.83;;
20456;SDS011;10387;51.102;6.848;2022-10-16T11:49:53;1.53;;;0.90;;
20456;SDS011;10387;51.102;6.848;2022-10-16T11:52:28;1.40;;;1.10;;
20456;SDS011;10387;51.102;6.848;2022-10-16T11:57:32;2.20;;;1.00;;
20456;SDS011;10387;51.102;6.848;2022-10-16T12:00:02;1.33;;;0.80;;
20456;SDS011;10387;51.102;6.848;2022-10-16T12:07:56;1.80;;;0.90;;
20456;SDS011;10387;51.102;6.848;2022-10-16T12:10:27;1.77;;;1.17;;
20456;SDS011;10387;51.102;6.848;2022-10-16T12:12:53;1.63;;;1.33;;
20456;SDS011;10387;51.102;6.848;2022-10-16T12:17:47;3.40;;;1.70;;
20456;SDS011;10387;51.102;6.848;2022-10-16T12:22:52;3.50;;;1.30;;
20456;SDS011;10387;51.102;6.848;2022-10-16T12:25:30;1.60;;;1.13;;
20456;SDS011;10387;51.102;6.848;2022-10-16T12:30:23;1.63;;;1.43;;
20456;SDS011;10387;51.102;6.848;2022-10-16T12:32:57;1.50;;;1.10;;
20456;SDS011;10387;51.102;6.848;2022-10-16T12:35:28;2.23;;;1.50;;
20456;SDS011;10387;51.102;6.848;2022-10-16T12:38:06;1.60;;;1.10;;
20456;SDS011;10387;51.102;6.848;2022-10-16T12:40:33;1.97;;;1.23;;
20456;SDS011;10387;51.102;6.848;2022-10-16T12:43:10;2.13;;;0.90;;
20456;SDS011;10387;51.102;6.848;2022-10-16T12:45:37;2.00;;;1.10;;
20456;SDS011;10387;51.102;6.848;2022-10-16T12:48:04;2.53;;;1.13;;
20456;SDS011;10387;51.102;6.848;2022-10-16T12:50:43;1.80;;;1.50;;
20456;SDS011;10387;51.102;6.848;2022-10-16T12:53:43;1.80;;;1.13;;
20456;SDS011;10387;51.102;6.848;2022-10-16T12:56:15;1.80;;;1.10;;
20456;SDS011;10387;51.102;6.848;2022-10-16T12:58:51;2.37;;;1.10;;
20456;SDS011;10387;51.102;6.848;2022-10-16T13:04:00;1.47;;;1.03;;
20456;SDS011;10387;51.102;6.848;2022-10-16T13:19:44;1.23;;;0.83;;
20456;SDS011;10387;51.102;6.848;2022-10-16T13:22:24;2.37;;;1.13;;
20456;SDS011;10387;51.102;6.848;2022-10-16T13:24:59;2.70;;;1.00;;
20456;SDS011;10387;51.102;6.848;2022-10-16T13:27:30;1.80;;;1.00;;
20456;SDS011;10387;51.102;6.848;2022-10-16T13:30:17;2.77;;;0.90;;
20456;SDS011;10387;51.102;6.848;2022-10-16T13:32:45;1.50;;;0.70;;
20456;SDS011;10387;51.102;6.848;2022-10-16T13:35:19;1.57;;;0.80;;
20456;SDS011;10387;51.102;6.848;2022-10-16T13:37:46;1.90;;;0.90;;
20456;SDS011;10387;51.102;6.848;2022-10-16T13:40:22;1.57;;;0.70;;
20456;SDS011;10387;51.102;6.848;2022-10-16T13:42:50;2.03;;;0.60;;
20456;SDS011;10387;51.102;6.848;2022-10-16T13:45:17;1.63;;;0.63;;
20456;SDS011;10387;51.102;6.848;2022-10-16T13:47:43;2.77;;;0.80;;
20456;SDS011;10387;51.102;6.848;2022-10-16T13:50:11;2.20;;;0.90;;
20456;SDS011;10387;51.102;6.848;2022-10-16T13:52:38;1.60;;;0.70;;
20456;SDS011;10387;51.102;6.848;2022-10-16T13:55:09;1.80;;;0.70;;
20456;SDS011;10387;51.102;6.848;2022-10-16T13:57:36;0.83;;;0.67;;
20456;SDS011;10387;51.102;6.848;2022-10-16T14:00:02;1.43;;;0.80;;
20456;SDS011;10387;51.102;6.848;2022-10-16T14:02:33;3.00;;;0.80;;
20456;SDS011;10387;51.102;6.848;2022-10-16T14:05:01;0.73;;;0.43;;
20456;SDS011;10387;51.102;6.848;2022-10-16T14:07:28;1.97;;;0.80;;
20456;SDS011;10387;51.102;6.848;2022-10-16T14:09:56;0.70;;;0.70;;
20456;SDS011;10387;51.102;6.848;2022-10-16T14:12:26;1.90;;;0.90;;
20456;SDS011;10387;51.102;6.848;2022-10-16T14:14:53;2.60;;;0.90;;
20456;SDS011;10387;51.102;6.848;2022-10-16T14:19:46;1.43;;;0.80;;
20456;SDS011;10387;51.102;6.848;2022-10-16T14:24:45;2.87;;;0.70;;
20456;SDS011;10387;51.102;6.848;2022-10-16T14:27:21;1.37;;;0.70;;
20456;SDS011;10387;51.102;6.848;2022-10-16T14:29:49;1.23;;;0.80;;
20456;SDS011;10387;51.102;6.848;2022-10-16T14:32:22;2.20;;;0.87;;
20456;SDS011;10387;51.102;6.848;2022-10-16T14:34:52;1.17;;;0.73;;
20456;SDS011;10387;51.102;6.848;2022-10-16T14:37:26;1.20;;;0.70;;
20456;SDS011;10387;51.102;6.848;2022-10-16T14:39:52;2.13;;;0.80;;
20456;SDS011;10387;51.102;6.848;2022-10-16T14:42:20;2.10;;;0.83;;
20456;SDS011;10387;51.102;6.848;2022-10-16T14:44:49;1.40;;;0.63;;
20456;SDS011;10387;51.102;6.848;2022-10-16T14:47:18;1.77;;;0.70;;
20456;SDS011;10387;51.102;6.848;2022-10-16T14:49:50;2.07;;;0.67;;
20456;SDS011;10387;51.102;6.848;2022-10-16T14:52:16;1.07;;;0.77;;
20456;SDS011;10387;51.102;6.848;2022-10-16T14:54:43;1.90;;;1.00;;
20456;SDS011;10387;51.102;6.848;2022-10-16T14:57:16;1.17;;;0.60;;
20456;SDS011;10387;51.102;6.848;2022-10-16T14:59:42;1.90;;;0.83;;
20456;SDS011;10387;51.102;6.848;2022-10-16T15:02:18;1.97;;;0.60;;
20456;SDS011;10387;51.102;6.848;2022-10-16T15:04:44;1.43;;;0.90;;
20456;SDS011;10387;51.102;6.848;2022-10-16T15:07:14;2.90;;;0.93;;
20456;SDS011;10387;51.102;6.848;2022-10-16T15:09:40;1.93;;;0.80;;
20456;SDS011;10387;51.102;6.848;2022-10-16T15:12:06;1.90;;;1.00;;
20456;SDS011;10387;51.102;6.848;2022-10-16T15:14:32;1.63;;;0.80;;
20456;SDS011;10387;51.102;6.848;2022-10-16T15:16:58;2.30;;;1.07;;
20456;SDS011;10387;51.102;6.848;2022-10-16T15:19:24;1.63;;;0.70;;
20456;SDS011;10387;51.102;6.848;2022-10-16T15:21:50;1.50;;;0.77;;
20456;SDS011;10387;51.102;6.848;2022-10-16T15:24:17;1.70;;;0.93;;
20456;SDS011;10387;51.102;6.848;2022-10-16T15:26:44;1.07;;;0.90;;
20456;SDS011;10387;51.102;6.848;2022-10-16T15:29:11;1.57;;;0.90;;
20456;SDS011;10387;51.102;6.848;2022-10-16T15:31:37;1.57;;;1.00;;
20456;SDS011;10387;51.102;6.848;2022-10-16T15:34:03;1.83;;;1.00;;
20456;SDS011;10387;51.102;6.848;2022-10-16T15:36:32;2.60;;;1.03;;
20456;SDS011;10387;51.102;6.848;2022-10-16T15:39:05;1.00;;;0.90;;
20456;SDS011;10387;51.102;6.848;2022-10-16T15:41:36;2.20;;;1.00;;
20456;SDS011;10387;51.102;6.848;2022-10-16T15:44:02;1.40;;;1.10;;
20456;SDS011;10387;51.102;6.848;2022-10-16T15:46:29;2.47;;;1.00;;
20456;SDS011;10387;51.102;6.848;2022-10-16T15:48:56;3.43;;;1.20;;
20456;SDS011;10387;51.102;6.848;2022-10-16T15:51:23;2.93;;;1.27;;
20456;SDS011;10387;51.102;6.848;2022-10-16T15:53:49;1.13;;;0.93;;
20456;SDS011;10387;51.102;6.848;2022-10-16T15:56:16;1.23;;;0.93;;
20456;SDS011;10387;51.102;6.848;2022-10-16T15:58:42;1.57;;;0.80;;
20456;SDS011;10387;51.102;6.848;2022-10-16T16:01:09;1.27;;;1.00;;
20456;SDS011;10387;51.102;6.848;2022-10-16T16:03:36;2.57;;;1.20;;
20456;SDS011;10387;51.102;6.848;2022-10-16T16:06:05;2.07;;;1.30;;
20456;SDS011;10387;51.102;6.848;2022-10-16T16:08:32;1.30;;;1.20;;
20456;SDS011;10387;51.102;6.848;2022-10-16T16:11:03;1.53;;;1.30;;
20456;SDS011;10387;51.102;6.848;2022-10-16T16:13:33;2.60;;;1.20;;
20456;SDS011;10387;51.102;6.848;2022-10-16T16:15:59;1.63;;;1.20;;
20456;SDS011;10387;51.102;6.848;2022-10-16T16:18:25;3.73;;;1.33;;
20456;SDS011;10387;51.102;6.848;2022-10-16T16:20:52;5.83;;;1.40;;
20456;SDS011;10387;51.102;6.848;2022-10-16T16:23:18;1.20;;;1.10;;
20456;SDS011;10387;51.102;6.848;2022-10-16T16:25:45;2.30;;;1.33;;
20456;SDS011;10387;51.102;6.848;2022-10-16T16:28:10;2.47;;;1.50;;
20456;SDS011;10387;51.102;6.848;2022-10-16T16:30:39;2.17;;;1.37;;
20456;SDS011;10387;51.102;6.848;2022-10-16T16:33:05;2.00;;;1.57;;